Time;durP1;ratioP1;P1;durP2;ratioP2;P2;SDS_P1;SDS_P2;PMS_P1;PMS_P2;Temp;Humidity;BMP_temperature;BMP_pressure;BME280_temperature;BME280_humidity;BME280_pressure;Samples;Min_cycle;Max_cycle;Signal;HPM_P1;HPM_P2
2021/05/05 00:00:47;;;;;;;5.20;1.55;;;;;;;;;;5003470;28;20040;-86
2021/05/05 00:03:12;;;;;;;5.80;1.40;;;;;;;;;;5014666;28;20025;-86
2021/05/05 00:05:38;;;;;;;5.78;1.52;;;;;;;;;;5012687;28;20485;-86
2021/05/05 00:08:03;;;;;;;8.30;1.80;;;;;;;;;;5026635;28;20026;-86
2021/05/05 00:10:28;;;;;;;7.05;1.42;;;;;;;;;;5012500;28;20099;-86
2021/05/05 00:12:54;;;;;;;6.30;1.98;;;;;;;;;;5011800;28;20539;-86
2021/05/05 00:15:23;;;;;;;3.15;1.35;;;;;;;;;;5027105;28;20401;-86
2021/05/05 00:17:48;;;;;;;6.18;1.80;;;;;;;;;;5028801;28;20030;-87
2021/05/05 00:20:14;;;;;;;2.45;1.40;;;;;;;;;;5009637;28;20032;-86
2021/05/05 00:22:40;;;;;;;5.22;1.55;;;;;;;;;;5029438;28;20025;-87
2021/05/05 00:25:05;;;;;;;4.47;1.40;;;;;;;;;;5029572;28;20021;-87
2021/05/05 00:27:31;;;;;;;8.38;1.73;;;;;;;;;;5011415;28;20022;-86
2021/05/05 00:29:57;;;;;;;3.00;1.38;;;;;;;;;;5010818;28;20029;-86
2021/05/05 00:32:22;;;;;;;3.25;1.02;;;;;;;;;;5011731;28;20100;-88
2021/05/05 00:34:47;;;;;;;2.77;1.27;;;;;;;;;;5029178;28;20474;-87
2021/05/05 00:37:13;;;;;;;4.95;1.25;;;;;;;;;;5028740;28;20252;-87
2021/05/05 00:39:38;;;;;;;5.70;1.20;;;;;;;;;;5012338;28;20049;-86
2021/05/05 00:42:03;;;;;;;3.80;1.38;;;;;;;;;;5028327;28;20075;-87
2021/05/05 00:44:29;;;;;;;6.05;1.60;;;;;;;;;;5029776;28;20021;-87
2021/05/05 00:46:54;;;;;;;7.20;1.52;;;;;;;;;;5011161;28;20429;-87
2021/05/05 00:49:19;;;;;;;7.93;1.25;;;;;;;;;;5028787;28;20033;-88
2021/05/05 00:51:44;;;;;;;4.22;1.65;;;;;;;;;;5012055;28;20477;-85
2021/05/05 00:54:10;;;;;;;3.90;1.50;;;;;;;;;;5012020;28;20021;-88
2021/05/05 00:56:35;;;;;;;7.70;1.60;;;;;;;;;;5011086;28;20014;-86
2021/05/05 00:59:00;;;;;;;5.70;1.80;;;;;;;;;;5029258;28;20021;-87
2021/05/05 01:01:25;;;;;;;4.75;1.58;;;;;;;;;;5027295;28;20055;-87
2021/05/05 01:03:51;;;;;;;9.85;1.63;;;;;;;;;;5012235;28;20025;-86
2021/05/05 01:06:16;;;;;;;4.95;1.30;;;;;;;;;;5010826;28;20516;-87
2021/05/05 01:08:43;;;;;;;6.45;1.38;;;;;;;;;;5009810;28;20516;-86
2021/05/05 01:11:08;;;;;;;2.15;1.08;;;;;;;;;;5011108;28;20500;-87
2021/05/05 01:13:33;;;;;;;5.88;2.10;;;;;;;;;;5010776;28;20029;-87
2021/05/05 01:15:58;;;;;;;5.13;1.65;;;;;;;;;;5009551;28;20025;-85
2021/05/05 01:18:24;;;;;;;6.03;1.23;;;;;;;;;;5025174;28;20045;-87
2021/05/05 01:20:49;;;;;;;6.78;1.75;;;;;;;;;;5011998;28;20089;-87
2021/05/05 01:23:14;;;;;;;5.07;1.58;;;;;;;;;;5011079;28;20068;-86
2021/05/05 01:25:40;;;;;;;8.85;1.48;;;;;;;;;;5012024;28;20025;-86
2021/05/05 01:28:05;;;;;;;3.83;1.42;;;;;;;;;;5010345;28;20040;-87
2021/05/05 01:30:30;;;;;;;4.03;1.95;;;;;;;;;;5011786;28;20029;-86
2021/05/05 01:32:56;;;;;;;6.85;2.17;;;;;;;;;;5012313;28;20024;-86
2021/05/05 01:35:21;;;;;;;6.50;2.30;;;;;;;;;;5004269;28;20017;-87
2021/05/05 01:37:48;;;;;;;5.82;2.05;;;;;;;;;;5015285;28;20113;-87
2021/05/05 01:40:28;;;;;;;5.22;1.55;;;;;;;;;;5015237;28;20055;-86
2021/05/05 01:42:53;;;;;;;9.27;2.50;;;;;;;;;;5010356;28;20033;-87
2021/05/05 01:45:18;;;;;;;3.92;1.33;;;;;;;;;;5032397;28;20022;-87
2021/05/05 01:47:43;;;;;;;5.30;1.60;;;;;;;;;;5013569;28;20025;-87
2021/05/05 01:52:45;;;;;;;10.55;1.40;;;;;;;;;;4992065;28;20136;-67
2021/05/05 01:55:10;;;;;;;7.50;1.85;;;;;;;;;;4994800;28;20122;-67
2021/05/05 01:57:38;;;;;;;4.97;1.77;;;;;;;;;;4997910;28;20037;-67
2021/05/05 02:00:09;;;;;;;8.63;3.17;;;;;;;;;;5001074;28;20449;-67
2021/05/05 02:02:34;;;;;;;5.30;1.27;;;;;;;;;;5000893;28;20040;-67
2021/05/05 02:04:59;;;;;;;10.43;1.98;;;;;;;;;;5007608;28;20108;-67
2021/05/05 02:07:25;;;;;;;7.50;1.90;;;;;;;;;;5012292;28;20033;-67
2021/05/05 02:09:50;;;;;;;8.00;2.03;;;;;;;;;;4999437;28;20030;-68
2021/05/05 02:12:16;;;;;;;11.05;1.92;;;;;;;;;;4994572;28;20029;-67
2021/05/05 02:14:41;;;;;;;6.65;2.13;;;;;;;;;;5009567;28;20064;-67
2021/05/05 02:17:07;;;;;;;7.07;2.70;;;;;;;;;;4998710;28;20092;-67
2021/05/05 02:19:32;;;;;;;10.43;2.30;;;;;;;;;;5001772;28;20105;-67
2021/05/05 02:21:57;;;;;;;7.97;2.15;;;;;;;;;;4994324;28;20037;-67
2021/05/05 02:24:22;;;;;;;7.87;2.30;;;;;;;;;;5001362;28;20030;-67
2021/05/05 02:26:47;;;;;;;4.00;1.88;;;;;;;;;;4994091;28;20270;-67
2021/05/05 02:29:13;;;;;;;13.20;3.60;;;;;;;;;;4999284;28;20593;-67
2021/05/05 02:31:38;;;;;;;6.60;2.33;;;;;;;;;;4993843;28;20117;-67
2021/05/05 02:34:03;;;;;;;8.70;3.33;;;;;;;;;;4982558;28;20022;-67
2021/05/05 02:36:32;;;;;;;10.60;3.05;;;;;;;;;;4995646;28;20756;-67
2021/05/05 02:38:58;;;;;;;13.73;3.13;;;;;;;;;;5003627;28;20099;-67
2021/05/05 02:41:24;;;;;;;11.45;3.85;;;;;;;;;;4990794;28;20192;-68
2021/05/05 02:43:49;;;;;;;10.23;3.42;;;;;;;;;;4999113;28;20406;-67
2021/05/05 02:46:14;;;;;;;13.30;4.03;;;;;;;;;;4988370;28;20097;-65
2021/05/05 02:48:39;;;;;;;13.95;4.22;;;;;;;;;;5010510;28;20056;-65
2021/05/05 02:51:05;;;;;;;9.43;3.00;;;;;;;;;;4976317;28;20026;-67
2021/05/05 02:53:30;;;;;;;18.77;4.27;;;;;;;;;;4996862;28;20099;-67
2021/05/05 02:55:55;;;;;;;13.70;5.10;;;;;;;;;;4996386;28;20292;-67
2021/05/05 02:58:20;;;;;;;15.13;6.27;;;;;;;;;;4998824;28;20276;-65
2021/05/05 03:00:45;;;;;;;16.17;6.20;;;;;;;;;;4993707;28;20276;-66
2021/05/05 03:03:10;;;;;;;19.27;5.90;;;;;;;;;;4993761;28;20025;-67
2021/05/05 03:05:36;;;;;;;14.02;5.20;;;;;;;;;;4997897;28;20848;-68
2021/05/05 03:08:01;;;;;;;16.25;4.88;;;;;;;;;;4998507;28;20113;-67
2021/05/05 03:10:26;;;;;;;16.40;4.97;;;;;;;;;;4993157;28;20117;-68
2021/05/05 03:12:51;;;;;;;12.93;5.95;;;;;;;;;;4993286;28;20022;-65
2021/05/05 03:15:16;;;;;;;19.90;8.18;;;;;;;;;;4997380;28;20088;-67
2021/05/05 03:17:42;;;;;;;18.90;8.70;;;;;;;;;;4992729;28;20019;-65
2021/05/05 03:20:08;;;;;;;17.70;7.50;;;;;;;;;;4992715;28;20106;-65
2021/05/05 03:22:34;;;;;;;12.75;5.82;;;;;;;;;;4992543;28;20037;-67
2021/05/05 03:24:59;;;;;;;12.50;3.83;;;;;;;;;;5003514;28;20029;-68
2021/05/05 03:27:24;;;;;;;12.35;3.75;;;;;;;;;;4998895;28;20095;-65
2021/05/05 03:29:49;;;;;;;8.47;3.00;;;;;;;;;;4994665;28;20045;-68
2021/05/05 03:32:14;;;;;;;11.23;3.05;;;;;;;;;;4994130;28;20274;-66
2021/05/05 03:34:39;;;;;;;11.43;3.13;;;;;;;;;;4994709;28;20090;-66
2021/05/05 03:37:05;;;;;;;13.98;2.95;;;;;;;;;;4992565;28;20033;-66
2021/05/05 03:39:30;;;;;;;11.35;3.22;;;;;;;;;;4992154;28;20756;-66
2021/05/05 03:41:55;;;;;;;7.45;3.05;;;;;;;;;;4993830;28;20025;-66
2021/05/05 03:44:20;;;;;;;13.45;3.97;;;;;;;;;;5002464;28;20108;-67
2021/05/05 03:46:45;;;;;;;10.80;3.20;;;;;;;;;;4998001;28;20414;-67
2021/05/05 03:49:11;;;;;;;10.50;3.45;;;;;;;;;;5026784;22;20493;-64
2021/05/05 03:51:36;;;;;;;12.57;2.83;;;;;;;;;;5018017;28;20018;-64
2021/05/05 03:54:01;;;;;;;13.80;3.30;;;;;;;;;;5003466;28;20029;-64
2021/05/05 03:56:27;;;;;;;19.08;3.30;;;;;;;;;;5009280;28;20021;-64
2021/05/05 03:58:52;;;;;;;12.85;3.03;;;;;;;;;;4999998;28;20018;-64
2021/05/05 04:01:17;;;;;;;16.67;3.65;;;;;;;;;;4989730;28;20032;-64
2021/05/05 04:03:42;;;;;;;14.90;6.88;;;;;;;;;;4989562;28;20117;-63
2021/05/05 04:06:08;;;;;;;23.67;7.30;;;;;;;;;;4989729;28;20049;-64
2021/05/05 04:08:33;;;;;;;17.30;6.45;;;;;;;;;;4988805;28;20352;-63
2021/05/05 04:10:58;;;;;;;13.90;5.50;;;;;;;;;;4989408;28;20065;-64
2021/05/05 04:13:23;;;;;;;17.10;4.55;;;;;;;;;;4988976;28;20204;-62
2021/05/05 04:15:48;;;;;;;10.88;4.18;;;;;;;;;;4987622;28;20398;-62
2021/05/05 04:18:14;;;;;;;14.75;4.63;;;;;;;;;;4988549;28;20177;-62
2021/05/05 04:20:39;;;;;;;14.00;5.40;;;;;;;;;;4989305;28;20028;-61
2021/05/05 04:23:04;;;;;;;11.40;4.57;;;;;;;;;;4988488;28;20026;-62
2021/05/05 04:25:29;;;;;;;16.65;5.30;;;;;;;;;;4987032;28;20470;-62
2021/05/05 04:27:55;;;;;;;16.73;5.15;;;;;;;;;;4988453;28;20037;-61
2021/05/05 04:30:20;;;;;;;16.57;6.30;;;;;;;;;;4988519;28;20449;-61
2021/05/05 04:32:46;;;;;;;25.33;5.95;;;;;;;;;;4988336;28;20266;-61
2021/05/05 04:35:12;;;;;;;15.38;5.10;;;;;;;;;;4988316;28;20449;-62
2021/05/05 04:37:37;;;;;;;10.82;3.80;;;;;;;;;;4987833;28;20101;-61
2021/05/05 04:40:05;;;;;;;13.63;4.33;;;;;;;;;;4987611;28;20033;-61
2021/05/05 04:42:30;;;;;;;25.45;4.45;;;;;;;;;;4987915;28;20350;-61
2021/05/05 04:44:55;;;;;;;16.90;4.97;;;;;;;;;;4988744;28;20490;-62
2021/05/05 04:47:20;;;;;;;16.92;6.13;;;;;;;;;;4988664;28;20081;-62
2021/05/05 04:49:45;;;;;;;19.60;5.10;;;;;;;;;;4988895;28;20033;-62
2021/05/05 04:52:11;;;;;;;14.10;5.97;;;;;;;;;;4987587;28;20448;-62
2021/05/05 04:54:36;;;;;;;28.38;6.43;;;;;;;;;;4987121;28;20261;-62
2021/05/05 04:57:01;;;;;;;17.42;4.55;;;;;;;;;;4988413;28;20035;-61
2021/05/05 04:59:26;;;;;;;11.95;4.85;;;;;;;;;;4988200;28;20088;-61
2021/05/05 05:01:51;;;;;;;12.43;4.53;;;;;;;;;;4988788;28;20018;-62
2021/05/05 05:04:16;;;;;;;17.33;5.32;;;;;;;;;;4988460;28;20406;-62
2021/05/05 05:06:42;;;;;;;21.70;5.53;;;;;;;;;;4988245;28;20113;-61
2021/05/05 05:09:07;;;;;;;19.73;5.88;;;;;;;;;;4987925;28;20033;-62
2021/05/05 05:11:32;;;;;;;15.00;4.65;;;;;;;;;;4988527;28;20471;-62
2021/05/05 05:13:57;;;;;;;13.43;4.85;;;;;;;;;;4987122;28;20057;-62
2021/05/05 05:16:23;;;;;;;22.08;6.07;;;;;;;;;;4988962;28;20097;-62
2021/05/05 05:18:48;;;;;;;17.95;7.25;;;;;;;;;;4989471;28;20049;-61
2021/05/05 05:21:13;;;;;;;16.83;6.45;;;;;;;;;;4990509;28;20080;-62
2021/05/05 05:23:39;;;;;;;13.15;5.63;;;;;;;;;;4972445;28;20335;-61
2021/05/05 05:26:04;;;;;;;6.88;3.00;;;;;;;;;;4989754;28;20423;-62
2021/05/05 05:28:29;;;;;;;18.15;5.30;;;;;;;;;;4989759;28;20010;-61
2021/05/05 05:30:54;;;;;;;9.13;5.25;;;;;;;;;;4990711;28;20025;-62
2021/05/05 05:33:19;;;;;;;16.65;5.35;;;;;;;;;;4990004;28;20022;-61
2021/05/05 05:35:45;;;;;;;27.50;5.80;;;;;;;;;;4989954;28;20368;-61
2021/05/05 05:38:10;;;;;;;19.23;8.10;;;;;;;;;;4989643;28;20205;-61
2021/05/05 05:40:35;;;;;;;17.55;7.75;;;;;;;;;;4989947;28;20026;-62
2021/05/05 05:43:01;;;;;;;20.23;7.68;;;;;;;;;;4990135;28;20097;-61
2021/05/05 05:45:26;;;;;;;20.63;7.60;;;;;;;;;;4985608;28;20125;-62
2021/05/05 05:47:51;;;;;;;22.25;8.18;;;;;;;;;;4988058;28;20030;-62
2021/05/05 05:50:17;;;;;;;14.00;8.20;;;;;;;;;;4987962;28;20030;-61
2021/05/05 05:52:42;;;;;;;23.80;7.72;;;;;;;;;;4989533;28;20018;-62
2021/05/05 05:55:09;;;;;;;13.88;7.43;;;;;;;;;;4989463;28;20057;-61
2021/05/05 05:57:34;;;;;;;24.63;8.30;;;;;;;;;;4990048;28;20030;-61
2021/05/05 05:59:59;;;;;;;19.92;9.13;;;;;;;;;;4989343;28;20545;-62
2021/05/05 06:02:25;;;;;;;22.17;8.90;;;;;;;;;;4989565;28;20042;-62
2021/05/05 06:04:50;;;;;;;21.48;9.45;;;;;;;;;;4989267;28;20033;-62
2021/05/05 06:07:15;;;;;;;23.33;9.00;;;;;;;;;;4989672;28;20035;-62
2021/05/05 06:09:40;;;;;;;20.05;8.73;;;;;;;;;;4988944;28;20484;-62
2021/05/05 06:12:06;;;;;;;19.23;8.43;;;;;;;;;;4989234;28;20505;-62
2021/05/05 06:14:31;;;;;;;20.17;7.72;;;;;;;;;;4989124;28;20318;-62
2021/05/05 06:16:56;;;;;;;25.35;8.55;;;;;;;;;;4990776;28;20101;-62
2021/05/05 06:19:21;;;;;;;22.27;11.30;;;;;;;;;;4992416;28;20022;-62
2021/05/05 06:21:47;;;;;;;17.80;8.88;;;;;;;;;;4993471;28;20436;-62
2021/05/05 06:24:12;;;;;;;20.05;5.47;;;;;;;;;;4992637;28;20446;-62
2021/05/05 06:26:37;;;;;;;15.97;6.13;;;;;;;;;;4992854;28;20030;-62
2021/05/05 06:29:03;;;;;;;17.33;7.85;;;;;;;;;;4992426;28;20277;-62
2021/05/05 06:31:28;;;;;;;18.75;7.97;;;;;;;;;;4992554;28;20014;-62
2021/05/05 06:33:53;;;;;;;19.17;8.10;;;;;;;;;;4992399;28;20053;-62
2021/05/05 06:36:18;;;;;;;15.05;6.00;;;;;;;;;;4992619;28;20387;-62
2021/05/05 06:38:44;;;;;;;20.85;6.68;;;;;;;;;;4975087;28;20313;-62
2021/05/05 06:41:09;;;;;;;20.77;7.28;;;;;;;;;;4991796;28;20278;-62
2021/05/05 06:43:35;;;;;;;19.25;6.45;;;;;;;;;;4992303;28;20026;-62
2021/05/05 06:46:02;;;;;;;21.30;8.07;;;;;;;;;;4992525;28;20030;-62
2021/05/05 06:48:27;;;;;;;21.05;6.57;;;;;;;;;;4991775;28;20018;-62
2021/05/05 06:50:52;;;;;;;25.38;7.80;;;;;;;;;;4990833;28;20120;-62
2021/05/05 06:53:17;;;;;;;24.77;8.95;;;;;;;;;;4991586;28;20021;-62
2021/05/05 06:55:43;;;;;;;15.88;7.10;;;;;;;;;;4992150;28;20383;-62
2021/05/05 06:58:08;;;;;;;14.90;6.72;;;;;;;;;;4991618;28;20046;-62
2021/05/05 07:00:33;;;;;;;19.33;5.50;;;;;;;;;;4992002;28;20038;-62
2021/05/05 07:02:58;;;;;;;12.27;4.72;;;;;;;;;;4991987;28;20400;-62
2021/05/05 07:05:23;;;;;;;14.10;6.90;;;;;;;;;;4991946;28;20041;-62
2021/05/05 07:07:48;;;;;;;17.05;6.82;;;;;;;;;;4992000;28;20109;-62
2021/05/05 07:10:14;;;;;;;18.90;6.80;;;;;;;;;;4990903;28;20014;-62
2021/05/05 07:12:39;;;;;;;13.73;5.40;;;;;;;;;;4992216;28;20765;-62
2021/05/05 07:15:05;;;;;;;13.32;6.88;;;;;;;;;;4989989;28;20022;-62
2021/05/05 07:17:30;;;;;;;17.17;5.10;;;;;;;;;;4988673;28;20387;-63
2021/05/05 07:19:55;;;;;;;17.48;4.97;;;;;;;;;;4991269;28;20050;-62
2021/05/05 07:22:20;;;;;;;8.00;3.88;;;;;;;;;;4992473;28;20033;-62
2021/05/05 07:24:48;;;;;;;4.07;2.90;;;;;;;;;;4992216;28;20022;-62
2021/05/05 07:27:13;;;;;;;8.23;2.85;;;;;;;;;;4992419;28;20018;-62
2021/05/05 07:29:39;;;;;;;5.88;2.70;;;;;;;;;;4991695;28;20030;-62
2021/05/05 07:32:04;;;;;;;10.95;3.38;;;;;;;;;;4991993;28;20433;-62
2021/05/05 07:34:29;;;;;;;5.78;2.60;;;;;;;;;;4992821;28;20455;-62
2021/05/05 07:37:05;;;;;;;8.40;5.18;;;;;;;;;;4992057;28;20028;-62
2021/05/05 07:39:49;;;;;;;11.52;5.65;;;;;;;;;;4991812;28;20026;-62
2021/05/05 07:47:37;;;;;;;13.68;7.15;;;;;;;;;;4990096;28;20882;-62
2021/05/05 07:50:04;;;;;;;12.88;4.47;;;;;;;;;;4990987;28;20026;-62
2021/05/05 07:52:30;;;;;;;12.23;6.70;;;;;;;;;;4988727;28;20105;-63
2021/05/05 07:54:56;;;;;;;10.70;5.15;;;;;;;;;;4991741;28;20105;-63
2021/05/05 07:57:22;;;;;;;12.68;5.80;;;;;;;;;;4990906;28;20018;-63
2021/05/05 07:59:47;;;;;;;8.82;4.72;;;;;;;;;;4990950;28;20025;-63
2021/05/05 08:02:13;;;;;;;20.50;6.72;;;;;;;;;;4991308;28;20030;-63
2021/05/05 08:04:38;;;;;;;16.13;5.97;;;;;;;;;;4991529;28;20034;-63
2021/05/05 08:07:04;;;;;;;10.67;4.43;;;;;;;;;;4991932;28;20434;-63
2021/05/05 08:09:29;;;;;;;12.55;6.75;;;;;;;;;;4990691;28;20292;-63
2021/05/05 08:11:54;;;;;;;15.25;7.95;;;;;;;;;;4991761;28;20471;-63
2021/05/05 08:14:20;;;;;;;18.58;9.45;;;;;;;;;;4991210;28;20022;-63
2021/05/05 08:16:46;;;;;;;14.00;6.25;;;;;;;;;;4991404;28;20433;-63
2021/05/05 08:19:11;;;;;;;21.65;6.75;;;;;;;;;;4990125;28;20073;-63
2021/05/05 08:21:36;;;;;;;8.30;3.30;;;;;;;;;;4990074;28;20030;-66
2021/05/05 08:24:01;;;;;;;12.02;3.38;;;;;;;;;;4989124;28;20033;-63
2021/05/05 08:26:30;;;;;;;4.80;3.40;;;;;;;;;;4990407;28;20041;-63
2021/05/05 08:28:55;;;;;;;7.78;3.22;;;;;;;;;;4990816;28;20494;-63
2021/05/05 08:31:20;;;;;;;10.10;3.17;;;;;;;;;;4989931;28;20022;-63
2021/05/05 08:33:45;;;;;;;5.50;3.15;;;;;;;;;;4990630;28;20073;-63
2021/05/05 08:36:11;;;;;;;8.25;4.35;;;;;;;;;;4991407;28;20105;-63
2021/05/05 08:38:36;;;;;;;12.55;4.57;;;;;;;;;;4989580;28;20068;-63
2021/05/05 08:41:02;;;;;;;5.78;3.10;;;;;;;;;;4990185;28;20194;-63
2021/05/05 08:43:27;;;;;;;7.18;3.40;;;;;;;;;;4990816;28;20471;-63
2021/05/05 08:45:57;;;;;;;5.47;3.00;;;;;;;;;;4990419;28;20030;-63
2021/05/05 08:48:22;;;;;;;8.07;2.50;;;;;;;;;;4989968;28;20156;-63
2021/05/05 08:50:47;;;;;;;7.25;2.25;;;;;;;;;;4990409;28;20476;-63
2021/05/05 08:53:12;;;;;;;7.00;2.38;;;;;;;;;;4990149;28;20550;-63
2021/05/05 08:55:38;;;;;;;4.18;2.33;;;;;;;;;;4989000;28;20018;-63
2021/05/05 08:58:04;;;;;;;7.93;3.08;;;;;;;;;;4989290;28;20458;-63
2021/05/05 09:00:31;;;;;;;14.13;3.38;;;;;;;;;;4991013;28;20022;-63
2021/05/05 09:02:57;;;;;;;9.25;2.70;;;;;;;;;;4988174;28;20171;-63
2021/05/05 09:05:23;;;;;;;9.05;2.78;;;;;;;;;;4990023;28;20021;-63
2021/05/05 09:07:48;;;;;;;5.68;3.17;;;;;;;;;;4990710;28;20027;-63
2021/05/05 09:10:21;;;;;;;6.55;2.80;;;;;;;;;;4990299;28;20026;-63
2021/05/05 09:12:49;;;;;;;7.97;3.40;;;;;;;;;;4988928;28;20487;-63
2021/05/05 09:15:19;;;;;;;7.57;3.50;;;;;;;;;;4990263;28;20037;-63
2021/05/05 09:17:46;;;;;;;8.73;3.47;;;;;;;;;;4984657;28;20025;-63
2021/05/05 09:20:19;;;;;;;10.02;4.38;;;;;;;;;;4989239;28;20026;-63
2021/05/05 09:22:57;;;;;;;13.98;5.85;;;;;;;;;;4989136;28;20048;-63
2021/05/05 09:25:24;;;;;;;10.25;3.63;;;;;;;;;;4987843;28;20466;-63
2021/05/05 09:28:08;;;;;;;12.77;4.82;;;;;;;;;;4989028;28;20030;-63
2021/05/05 09:30:34;;;;;;;9.18;3.88;;;;;;;;;;4984485;28;20438;-63
2021/05/05 09:32:59;;;;;;;9.95;3.67;;;;;;;;;;4989266;28;20027;-63
2021/05/05 09:35:31;;;;;;;8.30;2.78;;;;;;;;;;4990495;28;20505;-63
2021/05/05 09:37:58;;;;;;;13.80;3.03;;;;;;;;;;4989355;28;20041;-63
2021/05/05 09:40:23;;;;;;;15.20;3.65;;;;;;;;;;4988363;28;20346;-63
2021/05/05 09:42:48;;;;;;;15.00;3.88;;;;;;;;;;4988891;28;20027;-63
2021/05/05 09:45:14;;;;;;;8.88;2.28;;;;;;;;;;4989179;28;20057;-63
2021/05/05 09:47:47;;;;;;;13.15;2.60;;;;;;;;;;4988623;28;20495;-63
2021/05/05 09:50:32;;;;;;;14.07;3.78;;;;;;;;;;5010368;23;20042;-87
2021/05/05 09:53:16;;;;;;;8.90;2.17;;;;;;;;;;4970244;28;20458;-87
2021/05/05 09:55:42;;;;;;;10.68;2.30;;;;;;;;;;4992267;28;20410;-88
2021/05/05 09:58:26;;;;;;;16.08;4.22;;;;;;;;;;4974389;28;20018;-86
2021/05/05 10:01:03;;;;;;;7.65;2.25;;;;;;;;;;4974912;28;20026;-86
2021/05/05 10:03:39;;;;;;;8.45;2.95;;;;;;;;;;4974993;28;20552;-85
2021/05/05 10:06:17;;;;;;;16.50;3.50;;;;;;;;;;4973290;28;20395;-87
2021/05/05 10:08:42;;;;;;;8.40;2.55;;;;;;;;;;4990769;28;20057;-85
2021/05/05 10:11:07;;;;;;;9.70;2.63;;;;;;;;;;4974270;28;20034;-85
2021/05/05 10:13:32;;;;;;;12.20;3.05;;;;;;;;;;4974492;28;20261;-85
2021/05/05 10:15:58;;;;;;;7.60;2.40;;;;;;;;;;4991959;28;20050;-86
2021/05/05 10:18:23;;;;;;;11.93;2.70;;;;;;;;;;4992625;28;20018;-86
2021/05/05 10:20:49;;;;;;;20.38;4.55;;;;;;;;;;4992167;28;20105;-87
2021/05/05 10:23:17;;;;;;;13.82;3.33;;;;;;;;;;4993758;28;20026;-85
2021/05/05 10:25:43;;;;;;;14.75;3.08;;;;;;;;;;4980531;28;20022;-87
2021/05/05 10:28:10;;;;;;;12.00;3.85;;;;;;;;;;4978637;28;20618;-85
2021/05/05 10:30:36;;;;;;;12.73;3.45;;;;;;;;;;4974346;28;20038;-85
2021/05/05 10:33:02;;;;;;;9.23;2.80;;;;;;;;;;4974929;28;20022;-85
2021/05/05 10:35:27;;;;;;;11.88;3.60;;;;;;;;;;4988606;28;20032;-85
2021/05/05 10:37:59;;;;;;;19.95;3.45;;;;;;;;;;4974957;28;20085;-85
2021/05/05 10:40:26;;;;;;;15.90;3.45;;;;;;;;;;4974714;28;20026;-86
2021/05/05 10:42:54;;;;;;;12.50;3.67;;;;;;;;;;4974831;28;20036;-85
2021/05/05 10:45:28;;;;;;;16.38;3.63;;;;;;;;;;4973909;28;20109;-87
2021/05/05 10:48:02;;;;;;;13.70;3.50;;;;;;;;;;4991299;28;20054;-87
2021/05/05 10:50:27;;;;;;;16.30;4.72;;;;;;;;;;4973542;28;20453;-85
2021/05/05 10:52:54;;;;;;;16.40;3.85;;;;;;;;;;4974743;28;20030;-86
2021/05/05 10:55:33;;;;;;;9.75;3.33;;;;;;;;;;4974412;28;20386;-86
2021/05/05 10:58:06;;;;;;;8.95;2.80;;;;;;;;;;4974410;28;20714;-86
2021/05/05 11:00:42;;;;;;;6.50;2.13;;;;;;;;;;4973295;28;20022;-87
2021/05/05 11:03:08;;;;;;;14.70;3.92;;;;;;;;;;4991083;28;20030;-85
2021/05/05 11:05:35;;;;;;;7.30;3.10;;;;;;;;;;4973547;28;20034;-86
2021/05/05 11:08:20;;;;;;;7.63;2.47;;;;;;;;;;4972103;28;20065;-86
2021/05/05 11:10:46;;;;;;;13.30;4.07;;;;;;;;;;4967951;28;20027;-85
2021/05/05 11:13:12;;;;;;;8.80;2.70;;;;;;;;;;4964823;28;20470;-85
2021/05/05 11:15:43;;;;;;;12.03;2.43;;;;;;;;;;4992941;28;20117;-87
2021/05/05 11:18:30;;;;;;;7.22;2.42;;;;;;;;;;4974154;28;20754;-85
2021/05/05 11:21:05;;;;;;;11.32;2.15;;;;;;;;;;4974941;28;20050;-85
2021/05/05 11:23:34;;;;;;;9.63;2.25;;;;;;;;;;4982134;28;20022;-87
2021/05/05 11:26:14;;;;;;;9.15;1.90;;;;;;;;;;4984276;28;20135;-86
2021/05/05 11:28:39;;;;;;;;;;;;;;;;;;4981594;28;20026;-88
2021/05/05 11:31:04;;;;;;;6.72;1.98;;;;;;;;;;4998709;28;19920;-86
2021/05/05 11:33:49;;;;;;;9.63;2.33;;;;;;;;;;4975006;28;20021;-86
2021/05/05 11:36:15;;;;;;;6.93;2.13;;;;;;;;;;4973740;28;20027;-86
2021/05/05 11:38:40;;;;;;;13.85;2.72;;;;;;;;;;4990831;28;20050;-86
2021/05/05 11:41:06;;;;;;;11.45;2.85;;;;;;;;;;4973638;28;20030;-85
2021/05/05 11:43:34;;;;;;;8.25;2.35;;;;;;;;;;4973869;28;20022;-85
2021/05/05 11:46:00;;;;;;;9.13;2.33;;;;;;;;;;4973343;28;20089;-86
2021/05/05 11:48:27;;;;;;;11.63;3.80;;;;;;;;;;4973033;28;20026;-86
2021/05/05 11:50:52;;;;;;;11.38;2.63;;;;;;;;;;4972066;28;20049;-85
2021/05/05 11:53:27;;;;;;;6.35;1.95;;;;;;;;;;4973484;28;20081;-86
2021/05/05 11:55:52;;;;;;;12.52;2.20;;;;;;;;;;4972358;28;20056;-86
2021/05/05 11:58:21;;;;;;;12.85;2.30;;;;;;;;;;4972975;28;20109;-85
2021/05/05 12:00:46;;;;;;;15.07;2.80;;;;;;;;;;4970671;28;20029;-86
2021/05/05 12:03:11;;;;;;;12.68;2.30;;;;;;;;;;4971927;28;20022;-87
2021/05/05 12:05:41;;;;;;;14.63;2.08;;;;;;;;;;4990353;28;20486;-86
2021/05/05 12:08:14;;;;;;;11.15;2.03;;;;;;;;;;4972401;28;20042;-85
2021/05/05 12:10:40;;;;;;;4.45;1.35;;;;;;;;;;4989316;28;20057;-87
2021/05/05 12:13:10;;;;;;;8.68;1.67;;;;;;;;;;4971269;28;20026;-86
2021/05/05 12:15:37;;;;;;;6.45;1.45;;;;;;;;;;4989046;28;20053;-86
2021/05/05 12:18:21;;;;;;;12.45;1.83;;;;;;;;;;4971370;28;20109;-85
2021/05/05 12:20:47;;;;;;;5.60;2.42;;;;;;;;;;4972398;28;20023;-86
2021/05/05 12:23:14;;;;;;;5.20;1.55;;;;;;;;;;4972891;28;20030;-86
2021/05/05 12:25:39;;;;;;;5.95;2.22;;;;;;;;;;4989370;28;20026;-85
2021/05/05 12:28:13;;;;;;;8.98;2.10;;;;;;;;;;4989353;28;20018;-86
2021/05/05 12:30:49;;;;;;;14.85;2.20;;;;;;;;;;4970161;28;20498;-85
2021/05/05 12:33:34;;;;;;;13.40;2.78;;;;;;;;;;4972026;28;20030;-87
2021/05/05 12:36:00;;;;;;;8.48;2.60;;;;;;;;;;4972814;28;20031;-86
2021/05/05 12:38:33;;;;;;;8.15;2.65;;;;;;;;;;4972840;28;20331;-87
2021/05/05 12:41:02;;;;;;;8.57;3.05;;;;;;;;;;4971990;28;20022;-87
2021/05/05 12:43:31;;;;;;;13.40;2.42;;;;;;;;;;4972328;28;20034;-88
2021/05/05 12:46:02;;;;;;;10.88;3.20;;;;;;;;;;4971935;28;20026;-85
2021/05/05 12:48:32;;;;;;;7.00;1.73;;;;;;;;;;4989713;28;20026;-85
2021/05/05 12:51:05;;;;;;;5.50;1.50;;;;;;;;;;4971108;28;20793;-86
2021/05/05 12:53:49;;;;;;;7.15;2.10;;;;;;;;;;4990079;28;20030;-85
2021/05/05 12:56:15;;;;;;;5.60;1.88;;;;;;;;;;4989199;28;20014;-87
2021/05/05 12:58:44;;;;;;;5.07;1.35;;;;;;;;;;4972542;28;20076;-86
2021/05/05 13:01:11;;;;;;;3.63;1.20;;;;;;;;;;4970666;28;20038;-86
2021/05/05 13:03:46;;;;;;;2.97;1.52;;;;;;;;;;4970947;28;20672;-86
2021/05/05 13:06:12;;;;;;;4.00;1.35;;;;;;;;;;4972497;28;20045;-87
2021/05/05 13:08:53;;;;;;;6.85;1.90;;;;;;;;;;4970660;28;20402;-87
2021/05/05 13:11:26;;;;;;;7.60;2.03;;;;;;;;;;4973426;28;20217;-86
2021/05/05 13:13:56;;;;;;;9.25;2.33;;;;;;;;;;4972735;28;20018;-86
2021/05/05 13:16:47;;;;;;;10.10;2.20;;;;;;;;;;4989220;28;20014;-87
2021/05/05 13:19:34;;;;;;;5.07;2.15;;;;;;;;;;4989352;28;20074;-85
2021/05/05 13:33:03;;;;;;;12.05;1.63;;;;;;;;;;4970420;28;20045;-86
2021/05/05 13:35:32;;;;;;;7.43;2.33;;;;;;;;;;4976289;28;20053;-86
2021/05/05 13:38:16;;;;;;;4.15;1.33;;;;;;;;;;4992262;28;20117;-86
2021/05/05 13:40:46;;;;;;;7.22;1.60;;;;;;;;;;4975856;28;20642;-85
2021/05/05 13:43:49;;;;;;;8.15;2.65;;;;;;;;;;4975872;28;20164;-85
2021/05/05 13:51:06;;;;;;;23.27;2.30;;;;;;;;;;5007754;22;20157;-65
2021/05/05 13:53:32;;;;;;;5.50;1.70;;;;;;;;;;5005743;28;20036;-66
2021/05/05 13:55:57;;;;;;;10.40;2.15;;;;;;;;;;5013808;28;20018;-66
2021/05/05 13:58:22;;;;;;;9.60;2.42;;;;;;;;;;5013286;28;20101;-68
2021/05/05 14:00:47;;;;;;;5.45;1.92;;;;;;;;;;5013775;28;20052;-65
2021/05/05 14:03:13;;;;;;;6.75;2.60;;;;;;;;;;5012813;28;20029;-70
2021/05/05 14:05:42;;;;;;;11.60;2.20;;;;;;;;;;5012044;28;20028;-68
2021/05/05 14:08:07;;;;;;;9.82;2.95;;;;;;;;;;5012832;28;20026;-65
2021/05/05 14:10:32;;;;;;;8.23;3.30;;;;;;;;;;5012672;28;20072;-65
2021/05/05 14:12:58;;;;;;;6.45;2.45;;;;;;;;;;5012347;28;20022;-67
2021/05/05 14:15:30;;;;;;;8.05;2.72;;;;;;;;;;5009090;28;20018;-67
2021/05/05 14:17:55;;;;;;;6.72;2.67;;;;;;;;;;5011192;28;20025;-64
2021/05/05 14:20:20;;;;;;;16.13;3.58;;;;;;;;;;5012624;28;20382;-65
2021/05/05 14:22:45;;;;;;;14.15;3.22;;;;;;;;;;5012635;28;20052;-65
2021/05/05 14:25:11;;;;;;;8.40;2.85;;;;;;;;;;5012777;28;20026;-66
2021/05/05 14:27:37;;;;;;;12.00;2.92;;;;;;;;;;5011304;28;20018;-66
2021/05/05 14:30:06;;;;;;;8.95;2.75;;;;;;;;;;5011539;28;20034;-67
2021/05/05 14:32:31;;;;;;;17.83;3.10;;;;;;;;;;5012769;28;20018;-65
2021/05/05 14:34:56;;;;;;;10.57;2.75;;;;;;;;;;5012859;28;20026;-66
2021/05/05 14:37:22;;;;;;;8.73;2.63;;;;;;;;;;5011804;28;20057;-66
2021/05/05 14:39:47;;;;;;;9.88;2.50;;;;;;;;;;5011835;28;20347;-66
2021/05/05 14:42:17;;;;;;;7.90;2.67;;;;;;;;;;5011818;28;20128;-65
2021/05/05 14:45:41;;;;;;;7.28;2.90;;;;;;;;;;5011882;28;20336;-65
2021/05/05 14:50:15;;;;;;;8.50;2.65;;;;;;;;;;5012615;28;20037;-66
2021/05/05 14:52:40;;;;;;;10.38;2.97;;;;;;;;;;5012176;28;20041;-66
2021/05/05 14:55:06;;;;;;;12.47;2.10;;;;;;;;;;5012336;28;20065;-65
2021/05/05 14:57:35;;;;;;;10.63;2.80;;;;;;;;;;5012579;28;20653;-65
2021/05/05 15:00:01;;;;;;;7.53;2.50;;;;;;;;;;5011088;28;20025;-66
2021/05/05 15:02:26;;;;;;;11.80;2.70;;;;;;;;;;5012635;28;20104;-65